• Join FlightAware (Why Join?)
  • Login
  • US Flag 
08:46PM EDT


 

Airport Tracker/Info


-or-


 

Live Flight TrackerFlight Track Log ✈ SWA2870 ✈ 08-May-2012 ✈ KABQ - KHOU

Flight Track Log - Related Links

Times and Time Zones

All times are in EDT time to prevent confusion due to time zone crossing. See the SWA2870 flight status page for this flight to view local times or setup timezone preferences in your user account.

Time Position Orientation Groundspeed Altitude Reporting Facility
EDT Latitude Longitude Course Direction KTS MPH feet Rate Location/Type
03:23PM 34.6178 -106.0311 313° West  Level FlightAware Approximate
03:24PM 34.5437 -105.9249 313° West  Level FlightAware Approximate
03:24PM 35.0414 -106.5825 142° Southeast 172 198 6,300  Level Albuquerque Center
03:29PM 34.7303 -106.2844 122° Southeast 355 409 17,200 2,040 Climbing Albuquerque Center
03:30PM 34.6689 -106.1667 117° Southeast 406 467 18,900 2,040 Climbing Albuquerque Center
03:31PM 34.6153 -106.0414 121° Southeast 427 491 21,300 2,100 Climbing Albuquerque Center
03:32PM 34.5492 -105.9086 120° Southeast 443 510 23,100 1,620 Climbing Albuquerque Center
03:33PM 34.4869 -105.7789 121° Southeast 443 510 24,600 1,560 Climbing Albuquerque Center
03:34PM 34.4203 -105.6442 121° Southeast 454 522 26,300 1,860 Climbing Albuquerque Center
03:35PM 34.3558 -105.5122 120° Southeast 459 528 28,400 2,100 Climbing Albuquerque Center
03:36PM 34.2933 -105.3828 120° Southeast 459 528 30,500 1,620 Climbing Albuquerque Center
03:37PM 34.2392 -105.2686 120° Southeast 444 511 31,700 1,260 Climbing Albuquerque Center
03:38PM 34.1764 -105.1394 121° Southeast 444 511 33,100 1,200 Climbing Albuquerque Center
03:39PM 34.1156 -105.0158 121° Southeast 438 504 34,100 900 Climbing Albuquerque Center
03:40PM 34.0525 -104.8872 121° Southeast 443 510 34,900 420 Climbing Albuquerque Center
03:41PM 33.9806 -104.7442 120° Southeast 437 503 35,000  Climbing Albuquerque Center
03:42PM 33.9172 -104.6136 121° Southeast 442 509 35,000  Level Albuquerque Center
03:43PM 33.8514 -104.4831 120° Southeast 444 511 35,000  Level Albuquerque Center
03:44PM 33.7878 -104.3528 121° Southeast 444 511 35,000  Level Albuquerque Center
03:45PM 33.7239 -104.2228 123° Southeast 444 511 35,000  Level Albuquerque Center
03:46PM 33.6756 -104.1322 120° Southeast 450 518 35,000  Level Albuquerque Center
03:48PM 33.5364 -103.8472 120° Southeast 428 493 35,000  Level Fort Worth Center
03:49PM 33.4683 -103.7078 122° Southeast 435 501 35,000  Level Fort Worth Center
03:50PM 33.4036 -103.5839 120° Southeast 440 506 35,000 360 Level Fort Worth Center
03:51PM 33.3428 -103.4603 122° Southeast 445 512 35,800 720 Climbing Fort Worth Center
03:52PM 33.2778 -103.3342 120° Southeast 445 512 36,500 600 Climbing Fort Worth Center
03:53PM 33.2150 -103.2058 123° Southeast 445 512 37,000 240 Climbing Fort Worth Center
03:54PM 33.1475 -103.0822 122° Southeast 450 518 37,000  Level Fort Worth Center
03:55PM 33.0803 -102.9542 121° Southeast 450 518 37,000  Level Fort Worth Center
03:56PM 33.0169 -102.8289 123° Southeast 445 512 37,000  Level Fort Worth Center
03:57PM 32.9550 -102.7136 122° Southeast 445 512 37,000  Level Fort Worth Center
03:58PM 32.8892 -102.5886 121° Southeast 445 512 37,000  Level Fort Worth Center
03:59PM 32.8256 -102.4614 122° Southeast 445 512 37,000  Level Fort Worth Center
04:00PM 32.7578 -102.3339 122° Southeast 450 518 37,000  Level Fort Worth Center
04:01PM 32.6836 -102.1942 123° Southeast 450 518 37,000  Level Fort Worth Center
04:02PM 32.6133 -102.0672 123° Southeast 450 518 37,000  Level Fort Worth Center
04:03PM 32.5586 -101.9658 122° Southeast 450 518 37,000  Level Fort Worth Center
04:04PM 32.4786 -101.8139 123° Southeast 450 518 37,000  Level Fort Worth Center
04:05PM 32.4117 -101.6925 123° Southeast 450 518 37,000  Level Fort Worth Center
04:06PM 32.3486 -101.5789 123° Southeast 450 518 37,000  Level Fort Worth Center
04:07PM 32.2619 -101.4203 122° Southeast 447 514 37,000  Level Fort Worth Center
04:08PM 32.1950 -101.2944 119° Southeast 452 520 37,000  Level Fort Worth Center
04:09PM 32.1442 -101.1844 124° Southeast 445 512 37,000  Level Fort Worth Center
04:10PM 32.0747 -101.0614 124° Southeast 445 512 37,000  Level Fort Worth Center
04:11PM 31.9992 -100.9286 123° Southeast 445 512 37,000  Level Fort Worth Center
04:12PM 31.9294 -100.8036 122° Southeast 445 512 37,000  Level Fort Worth Center
04:13PM 31.8700 -100.6914 123° Southeast 453 521 37,000  Level Fort Worth Center
04:14PM 31.7961 -100.5592 124° Southeast 448 516 37,000  Level Fort Worth Center
04:15PM 31.7281 -100.4394 123° Southeast 443 510 37,000  Level Fort Worth Center
04:18PM 31.5608 -100.1339 123° Southeast 462 532 37,000  Level Houston Center
04:19PM 31.4933 -100.0139 124° Southeast 457 526 37,000  Level Houston Center
04:20PM 31.4256 -99.8942 123° Southeast 452 520 37,000  Level Houston Center
04:21PM 31.3561 -99.7694 122° Southeast 452 520 37,000 -60 Level Houston Center
04:22PM 31.2886 -99.6450 124° Southeast 452 520 36,900  Descending Houston Center
04:23PM 31.2186 -99.5253 115° Southeast 450 518 37,000  Climbing Houston Center
04:24PM 31.1639 -99.3903 103° East 456 525 37,000  Level Houston Center
04:25PM 31.1347 -99.2400 104° East 461 531 37,000  Level Houston Center
04:26PM 31.1036 -99.0925 104° East 466 536 37,000  Level Houston Center
04:27PM 31.0700 -98.9397 103° East 471 542 37,000  Level Houston Center
04:28PM 31.0436 -98.8097 103° East 471 542 37,000  Level Houston Center
04:29PM 31.0122 -98.6572 103° East 478 550 37,000  Level Houston Center
04:30PM 30.9822 -98.5078 104° East 478 550 37,000  Level Houston Center
04:31PM 30.9503 -98.3578 103° East 478 550 37,000  Level Houston Center
04:32PM 30.9203 -98.2061 105° East 478 550 37,000  Level Houston Center
04:33PM 30.8856 -98.0586 103° East 478 550 37,000  Level Houston Center
04:34PM 30.8553 -97.9044 105° East 479 551 37,000  Level Houston Center
04:35PM 30.8189 -97.7428 104° East 479 551 37,000  Level Houston Center
04:36PM 30.7858 -97.5911 105° East 479 551 37,000 -420 Level Houston Center
04:37PM 30.7506 -97.4417 104° East 479 551 36,200 -900 Descending Houston Center
04:38PM 30.7175 -97.2903 110° East 479 551 35,200 -1,020 Descending Houston Center
04:39PM 30.6731 -97.1503 120° Southeast 474 545 34,200 -1,980 Descending Houston Center
04:40PM 30.6094 -97.0236 120° Southeast 456 525 31,300 -3,000 Descending Houston Center
04:41PM 30.5436 -96.8925 120° Southeast 468 539 28,300 -3,300 Descending Houston Center
04:42PM 30.4797 -96.7617 119° Southeast 468 539 24,700 -3,540 Descending Houston Center
04:43PM 30.4353 -96.6678 120° Southeast 461 531 22,100 -2,940 Descending Houston Center
04:44PM 30.3594 -96.5150 119° Southeast 447 514 18,900 -2,940 Descending Houston Center
04:45PM 30.3031 -96.3992 120° Southeast 422 486 15,700 -3,000 Descending Houston Center
04:46PM 30.2483 -96.2911 127° Southeast 403 464 13,000 -2,400 Descending Houston Center
04:47PM 30.1869 -96.1969 138° Southeast 381 438 11,000 -1,020 Descending Houston Center
04:48PM 30.1183 -96.1267 139° Southeast 371 427 11,000  Level Houston Center
04:49PM 30.0394 -96.0464 140° Southeast 376 433 11,000  Level Houston Center
04:50PM 29.9586 -95.9689 139° Southeast 376 433 11,000 -120 Level Houston Center
04:51PM 29.8836 -95.8939 139° Southeast 376 433 10,800 -660 Descending Houston Center
04:52PM 29.8169 -95.8264 139° Southeast 353 406 9,700 -1,140 Descending Houston Center
04:53PM 29.7542 -95.7642 139° Southeast 319 367 8,600 -1,080 Descending Houston Center
04:54PM 29.6953 -95.7044 139° Southeast 302 348 7,600 -1,020 Descending Houston Center
04:55PM 29.6386 -95.6472 124° Southeast 288 331 6,600 -1,380 Descending Houston Center
04:56PM 29.5989 -95.5789 98° East 268 308 4,900 -1,800 Descending Houston Center
04:57PM 29.5889 -95.4925 89° East 259 298 3,100 -1,080 Descending Houston Center
04:58PM 29.5897 -95.3850 77° East 191 220 2,300 -840 Descending Houston Center
04:59PM 29.6017 -95.3258 39° Northeast 137 158 1,100 -900 Descending Houston Center
05:00PM 29.6317 -95.2981 237° Southwest 138 159 400 -720 Descending Houston Center
05:08PM 29.1394 -96.1584 237° Southwest  Level FlightAware Approximate